sensor_id;sensor_type;location;lat;lon;timestamp;P1;durP1;ratioP1;P2;durP2;ratioP2
56457;SDS011;42360;42.918;12.366;2022-08-18T00:00:09;7.50;;;2.65;;
56457;SDS011;42360;42.918;12.366;2022-08-18T00:02:39;9.55;;;3.03;;
56457;SDS011;42360;42.918;12.366;2022-08-18T00:05:06;7.00;;;2.40;;
56457;SDS011;42360;42.918;12.366;2022-08-18T00:07:32;12.05;;;2.78;;
56457;SDS011;42360;42.918;12.366;2022-08-18T00:09:59;10.40;;;2.45;;
56457;SDS011;42360;42.918;12.366;2022-08-18T00:12:29;7.82;;;2.38;;
56457;SDS011;42360;42.918;12.366;2022-08-18T00:14:57;6.88;;;2.08;;
56457;SDS011;42360;42.918;12.366;2022-08-18T00:17:28;6.82;;;2.78;;
56457;SDS011;42360;42.918;12.366;2022-08-18T00:19:54;6.78;;;2.53;;
56457;SDS011;42360;42.918;12.366;2022-08-18T00:22:20;8.63;;;2.47;;
56457;SDS011;42360;42.918;12.366;2022-08-18T00:24:47;8.45;;;2.85;;
56457;SDS011;42360;42.918;12.366;2022-08-18T00:27:28;9.15;;;2.83;;
56457;SDS011;42360;42.918;12.366;2022-08-18T00:29:55;8.88;;;2.72;;
56457;SDS011;42360;42.918;12.366;2022-08-18T00:32:23;9.05;;;3.00;;
56457;SDS011;42360;42.918;12.366;2022-08-18T00:34:51;10.70;;;3.53;;
56457;SDS011;42360;42.918;12.366;2022-08-18T00:37:18;6.75;;;2.55;;
56457;SDS011;42360;42.918;12.366;2022-08-18T00:39:44;6.78;;;2.63;;
56457;SDS011;42360;42.918;12.366;2022-08-18T00:42:14;8.02;;;2.45;;
56457;SDS011;42360;42.918;12.366;2022-08-18T00:44:48;9.80;;;2.50;;
56457;SDS011;42360;42.918;12.366;2022-08-18T00:47:13;10.05;;;3.70;;
56457;SDS011;42360;42.918;12.366;2022-08-18T00:49:40;9.18;;;2.97;;
56457;SDS011;42360;42.918;12.366;2022-08-18T00:52:07;8.77;;;2.97;;
56457;SDS011;42360;42.918;12.366;2022-08-18T00:54:34;8.75;;;2.97;;
56457;SDS011;42360;42.918;12.366;2022-08-18T00:57:04;9.07;;;3.30;;
56457;SDS011;42360;42.918;12.366;2022-08-18T00:59:32;6.35;;;3.30;;
56457;SDS011;42360;42.918;12.366;2022-08-18T01:02:22;9.65;;;2.92;;
56457;SDS011;42360;42.918;12.366;2022-08-18T01:05:02;12.55;;;3.00;;
56457;SDS011;42360;42.918;12.366;2022-08-18T01:07:40;9.10;;;3.08;;
56457;SDS011;42360;42.918;12.366;2022-08-18T01:10:14;9.20;;;3.30;;
56457;SDS011;42360;42.918;12.366;2022-08-18T01:12:47;8.48;;;2.60;;
56457;SDS011;42360;42.918;12.366;2022-08-18T01:15:16;7.75;;;2.67;;
56457;SDS011;42360;42.918;12.366;2022-08-18T01:17:43;7.30;;;2.80;;
56457;SDS011;42360;42.918;12.366;2022-08-18T01:20:38;10.85;;;3.20;;
56457;SDS011;42360;42.918;12.366;2022-08-18T01:23:45;10.20;;;3.45;;
56457;SDS011;42360;42.918;12.366;2022-08-18T01:26:12;10.65;;;2.60;;
56457;SDS011;42360;42.918;12.366;2022-08-18T01:28:39;11.15;;;3.47;;
56457;SDS011;42360;42.918;12.366;2022-08-18T01:31:07;7.13;;;2.17;;
56457;SDS011;42360;42.918;12.366;2022-08-18T01:33:38;5.07;;;2.75;;
56457;SDS011;42360;42.918;12.366;2022-08-18T01:36:13;5.63;;;2.63;;
56457;SDS011;42360;42.918;12.366;2022-08-18T01:38:41;7.53;;;2.92;;
56457;SDS011;42360;42.918;12.366;2022-08-18T01:41:08;9.18;;;2.47;;
56457;SDS011;42360;42.918;12.366;2022-08-18T01:43:34;9.90;;;2.67;;
56457;SDS011;42360;42.918;12.366;2022-08-18T01:46:00;11.80;;;3.15;;
56457;SDS011;42360;42.918;12.366;2022-08-18T01:48:32;8.55;;;3.42;;
56457;SDS011;42360;42.918;12.366;2022-08-18T01:51:02;7.72;;;2.75;;
56457;SDS011;42360;42.918;12.366;2022-08-18T01:53:29;7.40;;;2.85;;
56457;SDS011;42360;42.918;12.366;2022-08-18T01:55:55;8.13;;;2.80;;
56457;SDS011;42360;42.918;12.366;2022-08-18T01:58:21;7.72;;;2.60;;
56457;SDS011;42360;42.918;12.366;2022-08-18T02:00:52;9.93;;;3.43;;
56457;SDS011;42360;42.918;12.366;2022-08-18T02:03:22;9.95;;;2.78;;
56457;SDS011;42360;42.918;12.366;2022-08-18T02:05:51;7.50;;;2.70;;
56457;SDS011;42360;42.918;12.366;2022-08-18T02:08:20;6.05;;;3.60;;
56457;SDS011;42360;42.918;12.366;2022-08-18T02:10:46;7.63;;;2.75;;
56457;SDS011;42360;42.918;12.366;2022-08-18T02:13:12;8.82;;;2.78;;
56457;SDS011;42360;42.918;12.366;2022-08-18T02:15:37;9.18;;;3.80;;
56457;SDS011;42360;42.918;12.366;2022-08-18T02:18:03;10.43;;;3.03;;
56457;SDS011;42360;42.918;12.366;2022-08-18T02:20:29;8.85;;;3.63;;
56457;SDS011;42360;42.918;12.366;2022-08-18T02:22:55;8.05;;;3.10;;
56457;SDS011;42360;42.918;12.366;2022-08-18T02:25:23;8.45;;;3.60;;
56457;SDS011;42360;42.918;12.366;2022-08-18T02:27:49;13.07;;;3.53;;
56457;SDS011;42360;42.918;12.366;2022-08-18T02:30:16;8.27;;;3.40;;
56457;SDS011;42360;42.918;12.366;2022-08-18T02:32:42;8.48;;;4.40;;
56457;SDS011;42360;42.918;12.366;2022-08-18T02:35:08;8.80;;;3.42;;
56457;SDS011;42360;42.918;12.366;2022-08-18T02:37:38;6.78;;;4.28;;
56457;SDS011;42360;42.918;12.366;2022-08-18T02:40:12;10.15;;;3.00;;
56457;SDS011;42360;42.918;12.366;2022-08-18T02:42:38;11.00;;;3.55;;
56457;SDS011;42360;42.918;12.366;2022-08-18T02:45:04;7.70;;;3.40;;
56457;SDS011;42360;42.918;12.366;2022-08-18T02:47:30;7.90;;;2.95;;
56457;SDS011;42360;42.918;12.366;2022-08-18T02:49:56;8.15;;;3.03;;
56457;SDS011;42360;42.918;12.366;2022-08-18T02:52:22;6.63;;;4.00;;
56457;SDS011;42360;42.918;12.366;2022-08-18T02:54:52;10.27;;;3.40;;
56457;SDS011;42360;42.918;12.366;2022-08-18T02:57:18;10.15;;;3.20;;
56457;SDS011;42360;42.918;12.366;2022-08-18T02:59:47;8.98;;;3.10;;
56457;SDS011;42360;42.918;12.366;2022-08-18T03:02:13;9.80;;;3.30;;
56457;SDS011;42360;42.918;12.366;2022-08-18T03:04:38;7.65;;;3.20;;
56457;SDS011;42360;42.918;12.366;2022-08-18T03:07:05;11.93;;;3.40;;
56457;SDS011;42360;42.918;12.366;2022-08-18T03:09:32;9.43;;;3.58;;
56457;SDS011;42360;42.918;12.366;2022-08-18T03:11:58;14.02;;;4.05;;
56457;SDS011;42360;42.918;12.366;2022-08-18T03:14:24;11.15;;;4.15;;
56457;SDS011;42360;42.918;12.366;2022-08-18T03:16:50;10.07;;;3.28;;
56457;SDS011;42360;42.918;12.366;2022-08-18T03:19:16;9.32;;;3.28;;
56457;SDS011;42360;42.918;12.366;2022-08-18T03:21:43;5.85;;;2.60;;
56457;SDS011;42360;42.918;12.366;2022-08-18T03:24:10;12.30;;;3.17;;
56457;SDS011;42360;42.918;12.366;2022-08-18T03:26:39;13.68;;;4.10;;
56457;SDS011;42360;42.918;12.366;2022-08-18T03:29:06;9.55;;;3.53;;
56457;SDS011;42360;42.918;12.366;2022-08-18T03:31:33;13.35;;;3.65;;
56457;SDS011;42360;42.918;12.366;2022-08-18T03:33:58;9.27;;;3.70;;
56457;SDS011;42360;42.918;12.366;2022-08-18T03:36:29;11.05;;;3.65;;
56457;SDS011;42360;42.918;12.366;2022-08-18T03:38:57;14.80;;;3.40;;
56457;SDS011;42360;42.918;12.366;2022-08-18T03:41:26;13.20;;;3.83;;
56457;SDS011;42360;42.918;12.366;2022-08-18T03:43:52;9.18;;;3.40;;
56457;SDS011;42360;42.918;12.366;2022-08-18T03:46:19;10.60;;;3.90;;
56457;SDS011;42360;42.918;12.366;2022-08-18T03:48:46;11.60;;;3.97;;
56457;SDS011;42360;42.918;12.366;2022-08-18T03:51:14;9.77;;;4.20;;
56457;SDS011;42360;42.918;12.366;2022-08-18T03:53:42;10.45;;;3.90;;
56457;SDS011;42360;42.918;12.366;2022-08-18T03:56:09;14.40;;;4.50;;
56457;SDS011;42360;42.918;12.366;2022-08-18T03:58:50;12.15;;;3.83;;
56457;SDS011;42360;42.918;12.366;2022-08-18T04:01:18;9.35;;;3.85;;
56457;SDS011;42360;42.918;12.366;2022-08-18T04:03:48;12.02;;;4.30;;
56457;SDS011;42360;42.918;12.366;2022-08-18T04:06:23;14.25;;;3.95;;
56457;SDS011;42360;42.918;12.366;2022-08-18T04:08:51;9.20;;;4.75;;
56457;SDS011;42360;42.918;12.366;2022-08-18T04:11:18;9.80;;;3.65;;
56457;SDS011;42360;42.918;12.366;2022-08-18T04:13:43;10.75;;;3.92;;
56457;SDS011;42360;42.918;12.366;2022-08-18T04:16:09;12.60;;;3.75;;
56457;SDS011;42360;42.918;12.366;2022-08-18T04:18:35;6.22;;;3.58;;
56457;SDS011;42360;42.918;12.366;2022-08-18T04:21:02;12.15;;;3.90;;
56457;SDS011;42360;42.918;12.366;2022-08-18T04:26:04;12.90;;;4.28;;
56457;SDS011;42360;42.918;12.366;2022-08-18T04:28:31;8.55;;;3.70;;
56457;SDS011;42360;42.918;12.366;2022-08-18T04:30:57;6.75;;;3.60;;
56457;SDS011;42360;42.918;12.366;2022-08-18T04:33:27;10.73;;;3.67;;
56457;SDS011;42360;42.918;12.366;2022-08-18T04:35:53;10.25;;;3.22;;
56457;SDS011;42360;42.918;12.366;2022-08-18T04:38:20;12.63;;;4.13;;
56457;SDS011;42360;42.918;12.366;2022-08-18T04:40:47;8.10;;;3.40;;
56457;SDS011;42360;42.918;12.366;2022-08-18T04:43:13;9.90;;;3.53;;
56457;SDS011;42360;42.918;12.366;2022-08-18T04:45:40;10.93;;;3.70;;
56457;SDS011;42360;42.918;12.366;2022-08-18T04:48:06;11.65;;;3.63;;
56457;SDS011;42360;42.918;12.366;2022-08-18T04:50:32;12.30;;;4.05;;
56457;SDS011;42360;42.918;12.366;2022-08-18T04:53:00;11.85;;;3.67;;
56457;SDS011;42360;42.918;12.366;2022-08-18T04:55:52;15.18;;;4.30;;
56457;SDS011;42360;42.918;12.366;2022-08-18T04:58:19;10.13;;;4.93;;
56457;SDS011;42360;42.918;12.366;2022-08-18T05:00:58;12.45;;;3.85;;
56457;SDS011;42360;42.918;12.366;2022-08-18T05:03:24;10.48;;;3.80;;
56457;SDS011;42360;42.918;12.366;2022-08-18T05:05:52;14.88;;;4.47;;
56457;SDS011;42360;42.918;12.366;2022-08-18T05:08:18;11.93;;;3.90;;
56457;SDS011;42360;42.918;12.366;2022-08-18T05:10:44;12.93;;;4.25;;
56457;SDS011;42360;42.918;12.366;2022-08-18T05:13:12;9.80;;;3.72;;
56457;SDS011;42360;42.918;12.366;2022-08-18T05:15:42;7.70;;;2.90;;
56457;SDS011;42360;42.918;12.366;2022-08-18T05:18:08;11.82;;;4.10;;
56457;SDS011;42360;42.918;12.366;2022-08-18T05:20:35;9.50;;;4.03;;
56457;SDS011;42360;42.918;12.366;2022-08-18T05:23:01;12.50;;;4.00;;
56457;SDS011;42360;42.918;12.366;2022-08-18T05:25:27;12.23;;;3.78;;
56457;SDS011;42360;42.918;12.366;2022-08-18T05:27:53;10.73;;;4.50;;
56457;SDS011;42360;42.918;12.366;2022-08-18T05:30:19;9.35;;;3.97;;
56457;SDS011;42360;42.918;12.366;2022-08-18T05:32:45;9.80;;;4.10;;
56457;SDS011;42360;42.918;12.366;2022-08-18T05:35:34;10.48;;;4.18;;
56457;SDS011;42360;42.918;12.366;2022-08-18T05:41:08;11.80;;;4.30;;
56457;SDS011;42360;42.918;12.366;2022-08-18T05:43:44;9.02;;;4.55;;
56457;SDS011;42360;42.918;12.366;2022-08-18T05:46:11;16.98;;;4.85;;
56457;SDS011;42360;42.918;12.366;2022-08-18T05:48:37;12.10;;;4.43;;
56457;SDS011;42360;42.918;12.366;2022-08-18T05:51:17;12.95;;;4.55;;
56457;SDS011;42360;42.918;12.366;2022-08-18T05:53:48;12.55;;;4.43;;
56457;SDS011;42360;42.918;12.366;2022-08-18T05:56:34;10.20;;;4.53;;
56457;SDS011;42360;42.918;12.366;2022-08-18T05:59:11;12.68;;;5.40;;
56457;SDS011;42360;42.918;12.366;2022-08-18T06:01:45;9.95;;;5.10;;
56457;SDS011;42360;42.918;12.366;2022-08-18T06:06:49;12.32;;;5.60;;
56457;SDS011;42360;42.918;12.366;2022-08-18T06:09:18;12.00;;;5.40;;
56457;SDS011;42360;42.918;12.366;2022-08-18T06:11:48;11.02;;;5.50;;
56457;SDS011;42360;42.918;12.366;2022-08-18T06:14:14;14.75;;;5.43;;
56457;SDS011;42360;42.918;12.366;2022-08-18T06:17:17;15.50;;;5.88;;
56457;SDS011;42360;42.918;12.366;2022-08-18T06:27:33;13.43;;;5.15;;
56457;SDS011;42360;42.918;12.366;2022-08-18T06:33:31;12.45;;;4.68;;
56457;SDS011;42360;42.918;12.366;2022-08-18T06:36:02;16.55;;;5.57;;
56457;SDS011;42360;42.918;12.366;2022-08-18T06:50:04;12.73;;;4.07;;
56457;SDS011;42360;42.918;12.366;2022-08-18T06:52:37;8.95;;;5.03;;
56457;SDS011;42360;42.918;12.366;2022-08-18T06:55:05;15.82;;;5.43;;
56457;SDS011;42360;42.918;12.366;2022-08-18T06:57:35;13.20;;;5.20;;
56457;SDS011;42360;42.918;12.366;2022-08-18T07:00:08;11.07;;;5.00;;
56457;SDS011;42360;42.918;12.366;2022-08-18T07:02:59;14.90;;;5.22;;
56457;SDS011;42360;42.918;12.366;2022-08-18T07:05:30;12.07;;;5.32;;
56457;SDS011;42360;42.918;12.366;2022-08-18T07:08:02;11.73;;;4.72;;
56457;SDS011;42360;42.918;12.366;2022-08-18T07:10:44;11.60;;;4.50;;
56457;SDS011;42360;42.918;12.366;2022-08-18T07:15:36;12.57;;;4.93;;
56457;SDS011;42360;42.918;12.366;2022-08-18T07:18:04;13.90;;;4.32;;
56457;SDS011;42360;42.918;12.366;2022-08-18T07:20:40;12.80;;;5.10;;
56457;SDS011;42360;42.918;12.366;2022-08-18T07:25:57;16.35;;;5.07;;
56457;SDS011;42360;42.918;12.366;2022-08-18T07:34:06;13.82;;;4.60;;
56457;SDS011;42360;42.918;12.366;2022-08-18T07:42:30;12.93;;;3.95;;
56457;SDS011;42360;42.918;12.366;2022-08-18T07:45:05;10.80;;;4.53;;
56457;SDS011;42360;42.918;12.366;2022-08-18T07:47:37;12.68;;;4.93;;
56457;SDS011;42360;42.918;12.366;2022-08-18T07:50:09;13.50;;;4.15;;
56457;SDS011;42360;42.918;12.366;2022-08-18T07:57:55;14.48;;;3.50;;
56457;SDS011;42360;42.918;12.366;2022-08-18T08:11:02;14.27;;;4.55;;
56457;SDS011;42360;42.918;12.366;2022-08-18T08:21:22;9.00;;;3.00;;
56457;SDS011;42360;42.918;12.366;2022-08-18T08:24:08;10.55;;;2.72;;
56457;SDS011;42360;42.918;12.366;2022-08-18T08:32:54;14.32;;;3.28;;
56457;SDS011;42360;42.918;12.366;2022-08-18T08:36:06;10.23;;;3.00;;
56457;SDS011;42360;42.918;12.366;2022-08-18T08:38:19;9.25;;;2.70;;
56457;SDS011;42360;42.918;12.366;2022-08-18T08:40:56;14.20;;;3.08;;
56457;SDS011;42360;42.918;12.366;2022-08-18T08:43:35;10.48;;;2.97;;
56457;SDS011;42360;42.918;12.366;2022-08-18T08:46:09;13.75;;;3.47;;
56457;SDS011;42360;42.918;12.366;2022-08-18T08:48:58;12.75;;;3.47;;
56457;SDS011;42360;42.918;12.366;2022-08-18T08:54:07;9.98;;;3.22;;
56457;SDS011;42360;42.918;12.366;2022-08-18T08:56:39;11.23;;;3.50;;
56457;SDS011;42360;42.918;12.366;2022-08-18T08:59:09;10.75;;;2.90;;
56457;SDS011;42360;42.918;12.366;2022-08-18T09:04:32;10.65;;;3.30;;
56457;SDS011;42360;42.918;12.366;2022-08-18T09:13:27;12.05;;;2.25;;
56457;SDS011;42360;42.918;12.366;2022-08-18T09:18:46;10.43;;;2.65;;
56457;SDS011;42360;42.918;12.366;2022-08-18T09:24:25;9.73;;;2.15;;
56457;SDS011;42360;42.918;12.366;2022-08-18T09:40:15;12.63;;;3.08;;
56457;SDS011;42360;42.918;12.366;2022-08-18T09:43:10;14.10;;;3.75;;
56457;SDS011;42360;42.918;12.366;2022-08-18T09:48:34;15.93;;;2.67;;
56457;SDS011;42360;42.918;12.366;2022-08-18T09:56:12;15.80;;;3.63;;
56457;SDS011;42360;42.918;12.366;2022-08-18T09:58:47;17.58;;;6.93;;
56457;SDS011;42360;42.918;12.366;2022-08-18T10:06:40;18.88;;;3.25;;
56457;SDS011;42360;42.918;12.366;2022-08-18T10:09:28;10.90;;;3.30;;
56457;SDS011;42360;42.918;12.366;2022-08-18T10:14:37;19.05;;;2.95;;
56457;SDS011;42360;42.918;12.366;2022-08-18T10:17:33;14.13;;;4.15;;
56457;SDS011;42360;42.918;12.366;2022-08-18T10:20:29;13.63;;;3.00;;
56457;SDS011;42360;42.918;12.366;2022-08-18T10:23:04;15.50;;;2.75;;
56457;SDS011;42360;42.918;12.366;2022-08-18T10:27:56;10.13;;;3.28;;
56457;SDS011;42360;42.918;12.366;2022-08-18T10:30:44;17.17;;;2.90;;
56457;SDS011;42360;42.918;12.366;2022-08-18T10:33:10;13.73;;;2.70;;
56457;SDS011;42360;42.918;12.366;2022-08-18T10:38:05;10.65;;;3.45;;
56457;SDS011;42360;42.918;12.366;2022-08-18T10:40:39;13.10;;;3.17;;
56457;SDS011;42360;42.918;12.366;2022-08-18T10:45:43;6.25;;;1.77;;
56457;SDS011;42360;42.918;12.366;2022-08-18T10:48:16;9.43;;;1.92;;
56457;SDS011;42360;42.918;12.366;2022-08-18T10:50:51;6.65;;;1.70;;
56457;SDS011;42360;42.918;12.366;2022-08-18T10:53:26;6.00;;;1.67;;
56457;SDS011;42360;42.918;12.366;2022-08-18T10:58:56;4.28;;;1.77;;
56457;SDS011;42360;42.918;12.366;2022-08-18T11:01:51;4.28;;;2.05;;
56457;SDS011;42360;42.918;12.366;2022-08-18T11:04:35;4.70;;;1.27;;
56457;SDS011;42360;42.918;12.366;2022-08-18T11:07:10;2.65;;;1.00;;
56457;SDS011;42360;42.918;12.366;2022-08-18T11:09:44;3.95;;;1.42;;
56457;SDS011;42360;42.918;12.366;2022-08-18T11:12:14;7.68;;;1.73;;
56457;SDS011;42360;42.918;12.366;2022-08-18T11:14:56;3.08;;;1.70;;
56457;SDS011;42360;42.918;12.366;2022-08-18T11:17:43;8.35;;;1.90;;
56457;SDS011;42360;42.918;12.366;2022-08-18T11:20:12;4.72;;;1.60;;
56457;SDS011;42360;42.918;12.366;2022-08-18T11:22:47;5.78;;;1.42;;
56457;SDS011;42360;42.918;12.366;2022-08-18T11:28:19;6.75;;;1.88;;
56457;SDS011;42360;42.918;12.366;2022-08-18T11:30:49;5.38;;;1.10;;
56457;SDS011;42360;42.918;12.366;2022-08-18T11:33:17;5.38;;;1.42;;
56457;SDS011;42360;42.918;12.366;2022-08-18T11:35:46;3.33;;;1.52;;
56457;SDS011;42360;42.918;12.366;2022-08-18T11:38:14;6.93;;;1.60;;
56457;SDS011;42360;42.918;12.366;2022-08-18T11:40:41;7.45;;;1.90;;
56457;SDS011;42360;42.918;12.366;2022-08-18T11:53:38;6.20;;;1.58;;
56457;SDS011;42360;42.918;12.366;2022-08-18T12:03:58;6.47;;;1.50;;
56457;SDS011;42360;42.918;12.366;2022-08-18T12:06:33;5.85;;;1.83;;
56457;SDS011;42360;42.918;12.366;2022-08-18T12:09:33;4.43;;;1.63;;
56457;SDS011;42360;42.918;12.366;2022-08-18T12:12:04;5.22;;;2.28;;
56457;SDS011;42360;42.918;12.366;2022-08-18T12:17:38;4.22;;;1.90;;
56457;SDS011;42360;42.918;12.366;2022-08-18T12:20:05;11.68;;;2.72;;
56457;SDS011;42360;42.918;12.366;2022-08-18T12:22:33;9.68;;;3.92;;
56457;SDS011;42360;42.918;12.366;2022-08-18T12:25:00;7.60;;;2.72;;
56457;SDS011;42360;42.918;12.366;2022-08-18T12:27:27;8.05;;;2.05;;
56457;SDS011;42360;42.918;12.366;2022-08-18T12:29:55;6.43;;;2.03;;
56457;SDS011;42360;42.918;12.366;2022-08-18T12:32:23;8.27;;;2.40;;
56457;SDS011;42360;42.918;12.366;2022-08-18T12:34:51;10.48;;;2.80;;
56457;SDS011;42360;42.918;12.366;2022-08-18T12:37:17;6.97;;;2.35;;
56457;SDS011;42360;42.918;12.366;2022-08-18T12:39:44;8.57;;;2.05;;
56457;SDS011;42360;42.918;12.366;2022-08-18T12:42:10;4.82;;;2.08;;
56457;SDS011;42360;42.918;12.366;2022-08-18T12:44:36;15.18;;;2.47;;
56457;SDS011;42360;42.918;12.366;2022-08-18T12:47:04;9.30;;;2.38;;
56457;SDS011;42360;42.918;12.366;2022-08-18T12:49:36;10.90;;;3.05;;
56457;SDS011;42360;42.918;12.366;2022-08-18T12:52:02;11.50;;;2.80;;
56457;SDS011;42360;42.918;12.366;2022-08-18T12:54:28;7.63;;;2.40;;
56457;SDS011;42360;42.918;12.366;2022-08-18T12:56:54;10.40;;;2.88;;
56457;SDS011;42360;42.918;12.366;2022-08-18T12:59:21;9.18;;;2.25;;
56457;SDS011;42360;42.918;12.366;2022-08-18T13:01:48;7.47;;;2.40;;
56457;SDS011;42360;42.918;12.366;2022-08-18T13:04:14;5.65;;;2.00;;
56457;SDS011;42360;42.918;12.366;2022-08-18T13:09:14;9.18;;;4.18;;
56457;SDS011;42360;42.918;12.366;2022-08-18T13:11:40;8.90;;;3.83;;
56457;SDS011;42360;42.918;12.366;2022-08-18T13:14:06;6.35;;;2.03;;
56457;SDS011;42360;42.918;12.366;2022-08-18T13:16:33;4.88;;;2.15;;
56457;SDS011;42360;42.918;12.366;2022-08-18T13:19:00;7.07;;;1.85;;
56457;SDS011;42360;42.918;12.366;2022-08-18T13:21:26;7.68;;;2.10;;
56457;SDS011;42360;42.918;12.366;2022-08-18T13:23:52;6.95;;;2.33;;
56457;SDS011;42360;42.918;12.366;2022-08-18T13:26:27;8.00;;;2.10;;
56457;SDS011;42360;42.918;12.366;2022-08-18T13:28:57;8.05;;;2.15;;
56457;SDS011;42360;42.918;12.366;2022-08-18T13:31:25;8.93;;;2.67;;
56457;SDS011;42360;42.918;12.366;2022-08-18T13:33:54;8.95;;;2.28;;
56457;SDS011;42360;42.918;12.366;2022-08-18T13:36:21;9.50;;;2.53;;
56457;SDS011;42360;42.918;12.366;2022-08-18T13:38:49;7.93;;;2.85;;
56457;SDS011;42360;42.918;12.366;2022-08-18T13:41:19;6.35;;;2.13;;
56457;SDS011;42360;42.918;12.366;2022-08-18T13:43:45;7.55;;;2.35;;
56457;SDS011;42360;42.918;12.366;2022-08-18T13:46:12;9.05;;;2.58;;
56457;SDS011;42360;42.918;12.366;2022-08-18T13:48:41;7.65;;;2.45;;
56457;SDS011;42360;42.918;12.366;2022-08-18T13:51:07;9.07;;;2.38;;
56457;SDS011;42360;42.918;12.366;2022-08-18T13:53:35;8.20;;;2.85;;
56457;SDS011;42360;42.918;12.366;2022-08-18T13:56:02;8.52;;;2.55;;
56457;SDS011;42360;42.918;12.366;2022-08-18T13:58:28;12.18;;;2.35;;
56457;SDS011;42360;42.918;12.366;2022-08-18T14:00:57;10.02;;;2.85;;
56457;SDS011;42360;42.918;12.366;2022-08-18T14:03:24;9.85;;;3.10;;
56457;SDS011;42360;42.918;12.366;2022-08-18T14:05:50;9.45;;;2.67;;
56457;SDS011;42360;42.918;12.366;2022-08-18T14:08:17;9.95;;;2.72;;
56457;SDS011;42360;42.918;12.366;2022-08-18T14:10:51;9.10;;;2.58;;
56457;SDS011;42360;42.918;12.366;2022-08-18T14:13:21;5.93;;;2.83;;
56457;SDS011;42360;42.918;12.366;2022-08-18T14:15:47;10.13;;;2.58;;
56457;SDS011;42360;42.918;12.366;2022-08-18T14:18:13;14.20;;;3.72;;
56457;SDS011;42360;42.918;12.366;2022-08-18T14:20:39;12.77;;;2.85;;
56457;SDS011;42360;42.918;12.366;2022-08-18T14:23:23;7.50;;;2.65;;
56457;SDS011;42360;42.918;12.366;2022-08-18T14:26:08;10.18;;;2.65;;
56457;SDS011;42360;42.918;12.366;2022-08-18T14:28:53;10.43;;;3.15;;
56457;SDS011;42360;42.918;12.366;2022-08-18T14:31:18;9.15;;;3.03;;
56457;SDS011;42360;42.918;12.366;2022-08-18T14:33:44;10.93;;;4.05;;
56457;SDS011;42360;42.918;12.366;2022-08-18T14:36:11;8.88;;;2.53;;
56457;SDS011;42360;42.918;12.366;2022-08-18T14:38:38;15.32;;;3.50;;
56457;SDS011;42360;42.918;12.366;2022-08-18T14:41:04;11.80;;;2.75;;
56457;SDS011;42360;42.918;12.366;2022-08-18T14:43:31;6.60;;;2.17;;
56457;SDS011;42360;42.918;12.366;2022-08-18T14:46:01;8.48;;;3.30;;
56457;SDS011;42360;42.918;12.366;2022-08-18T14:48:30;11.00;;;2.75;;
56457;SDS011;42360;42.918;12.366;2022-08-18T14:50:57;12.23;;;3.78;;
56457;SDS011;42360;42.918;12.366;2022-08-18T14:53:25;15.02;;;3.38;;
56457;SDS011;42360;42.918;12.366;2022-08-18T14:55:53;10.67;;;3.27;;
56457;SDS011;42360;42.918;12.366;2022-08-18T14:58:24;10.55;;;2.97;;
56457;SDS011;42360;42.918;12.366;2022-08-18T15:00:53;10.32;;;2.63;;
56457;SDS011;42360;42.918;12.366;2022-08-18T15:03:20;8.88;;;2.85;;
56457;SDS011;42360;42.918;12.366;2022-08-18T15:05:47;14.50;;;3.78;;
56457;SDS011;42360;42.918;12.366;2022-08-18T15:08:12;15.07;;;3.78;;
56457;SDS011;42360;42.918;12.366;2022-08-18T15:10:38;10.77;;;3.03;;
56457;SDS011;42360;42.918;12.366;2022-08-18T15:13:04;14.10;;;3.50;;
56457;SDS011;42360;42.918;12.366;2022-08-18T15:15:30;12.32;;;3.10;;
56457;SDS011;42360;42.918;12.366;2022-08-18T15:17:56;13.85;;;3.75;;
56457;SDS011;42360;42.918;12.366;2022-08-18T15:20:23;11.52;;;3.72;;
56457;SDS011;42360;42.918;12.366;2022-08-18T15:22:49;12.48;;;2.85;;
56457;SDS011;42360;42.918;12.366;2022-08-18T15:25:33;11.23;;;3.50;;
56457;SDS011;42360;42.918;12.366;2022-08-18T15:28:12;10.27;;;3.22;;
56457;SDS011;42360;42.918;12.366;2022-08-18T15:30:42;12.60;;;3.42;;
56457;SDS011;42360;42.918;12.366;2022-08-18T15:33:09;9.00;;;3.10;;
56457;SDS011;42360;42.918;12.366;2022-08-18T15:35:35;9.52;;;3.42;;
56457;SDS011;42360;42.918;12.366;2022-08-18T15:38:03;11.40;;;4.07;;
56457;SDS011;42360;42.918;12.366;2022-08-18T15:40:29;7.45;;;2.80;;
56457;SDS011;42360;42.918;12.366;2022-08-18T15:42:55;11.75;;;3.58;;
56457;SDS011;42360;42.918;12.366;2022-08-18T15:47:56;5.60;;;3.30;;
56457;SDS011;42360;42.918;12.366;2022-08-18T15:50:22;10.57;;;4.07;;
56457;SDS011;42360;42.918;12.366;2022-08-18T15:52:53;10.70;;;3.10;;
56457;SDS011;42360;42.918;12.366;2022-08-18T15:55:22;11.85;;;3.33;;
56457;SDS011;42360;42.918;12.366;2022-08-18T15:57:50;8.40;;;4.13;;
56457;SDS011;42360;42.918;12.366;2022-08-18T16:00:18;3.50;;;2.65;;
56457;SDS011;42360;42.918;12.366;2022-08-18T16:02:57;13.20;;;3.85;;
56457;SDS011;42360;42.918;12.366;2022-08-18T16:05:34;11.90;;;3.72;;
56457;SDS011;42360;42.918;12.366;2022-08-18T16:08:01;9.73;;;3.00;;
56457;SDS011;42360;42.918;12.366;2022-08-18T16:10:31;9.05;;;2.80;;
56457;SDS011;42360;42.918;12.366;2022-08-18T16:12:57;11.02;;;3.58;;
56457;SDS011;42360;42.918;12.366;2022-08-18T16:15:25;17.45;;;4.38;;
56457;SDS011;42360;42.918;12.366;2022-08-18T16:17:53;6.75;;;3.20;;
56457;SDS011;42360;42.918;12.366;2022-08-18T16:20:20;11.60;;;4.93;;
56457;SDS011;42360;42.918;12.366;2022-08-18T16:22:48;12.48;;;4.32;;
56457;SDS011;42360;42.918;12.366;2022-08-18T16:25:15;11.63;;;3.30;;
56457;SDS011;42360;42.918;12.366;2022-08-18T16:27:41;12.57;;;4.15;;
56457;SDS011;42360;42.918;12.366;2022-08-18T16:30:08;9.18;;;3.45;;
56457;SDS011;42360;42.918;12.366;2022-08-18T16:32:36;13.82;;;4.03;;
56457;SDS011;42360;42.918;12.366;2022-08-18T16:35:02;13.60;;;5.15;;
56457;SDS011;42360;42.918;12.366;2022-08-18T16:37:29;9.88;;;2.72;;
56457;SDS011;42360;42.918;12.366;2022-08-18T16:39:54;14.18;;;3.72;;
56457;SDS011;42360;42.918;12.366;2022-08-18T16:42:20;12.70;;;4.28;;
56457;SDS011;42360;42.918;12.366;2022-08-18T16:44:46;11.32;;;3.20;;
56457;SDS011;42360;42.918;12.366;2022-08-18T16:47:12;7.80;;;3.50;;
56457;SDS011;42360;42.918;12.366;2022-08-18T16:49:41;12.95;;;4.75;;
56457;SDS011;42360;42.918;12.366;2022-08-18T16:52:13;9.27;;;3.90;;
56457;SDS011;42360;42.918;12.366;2022-08-18T16:54:40;15.25;;;4.13;;
56457;SDS011;42360;42.918;12.366;2022-08-18T16:57:06;10.68;;;3.85;;
56457;SDS011;42360;42.918;12.366;2022-08-18T16:59:32;14.60;;;4.35;;
56457;SDS011;42360;42.918;12.366;2022-08-18T17:02:16;17.42;;;4.82;;
56457;SDS011;42360;42.918;12.366;2022-08-18T17:05:00;14.15;;;4.20;;
56457;SDS011;42360;42.918;12.366;2022-08-18T17:07:27;12.60;;;4.05;;
56457;SDS011;42360;42.918;12.366;2022-08-18T17:09:54;9.15;;;4.43;;
56457;SDS011;42360;42.918;12.366;2022-08-18T17:12:21;15.55;;;4.63;;
56457;SDS011;42360;42.918;12.366;2022-08-18T17:14:47;10.88;;;4.50;;
56457;SDS011;42360;42.918;12.366;2022-08-18T17:17:13;20.83;;;6.07;;
56457;SDS011;42360;42.918;12.366;2022-08-18T17:19:41;7.00;;;3.75;;
56457;SDS011;42360;42.918;12.366;2022-08-18T17:22:08;15.38;;;4.32;;
56457;SDS011;42360;42.918;12.366;2022-08-18T17:24:33;11.32;;;4.53;;
56457;SDS011;42360;42.918;12.366;2022-08-18T17:27:21;14.00;;;3.53;;
56457;SDS011;42360;42.918;12.366;2022-08-18T17:30:04;6.50;;;2.47;;